sensor_id;sensor_type;location;lat;lon;timestamp;temperature;humidity
7694;DHT22;3889;48.162;11.510;2023-04-28T00:00:00;8.90;99.90
7694;DHT22;3889;48.162;11.510;2023-04-28T00:02:28;9.00;99.90
7694;DHT22;3889;48.162;11.510;2023-04-28T00:04:56;9.00;99.90
7694;DHT22;3889;48.162;11.510;2023-04-28T00:07:24;9.00;99.90
7694;DHT22;3889;48.162;11.510;2023-04-28T00:09:52;9.00;99.90
7694;DHT22;3889;48.162;11.510;2023-04-28T00:12:20;9.00;99.90
7694;DHT22;3889;48.162;11.510;2023-04-28T00:14:49;8.90;99.90
7694;DHT22;3889;48.162;11.510;2023-04-28T00:17:17;9.00;99.90
7694;DHT22;3889;48.162;11.510;2023-04-28T00:19:45;9.00;99.90
7694;DHT22;3889;48.162;11.510;2023-04-28T00:22:13;9.00;99.90
7694;DHT22;3889;48.162;11.510;2023-04-28T00:24:40;9.00;99.90
7694;DHT22;3889;48.162;11.510;2023-04-28T00:27:08;9.00;99.90
7694;DHT22;3889;48.162;11.510;2023-04-28T00:29:36;9.10;99.90
7694;DHT22;3889;48.162;11.510;2023-04-28T00:32:06;9.10;99.90
7694;DHT22;3889;48.162;11.510;2023-04-28T00:34:34;9.10;99.90
7694;DHT22;3889;48.162;11.510;2023-04-28T00:37:03;9.10;99.90
7694;DHT22;3889;48.162;11.510;2023-04-28T00:39:30;9.10;99.90
7694;DHT22;3889;48.162;11.510;2023-04-28T00:41:58;9.00;99.90
7694;DHT22;3889;48.162;11.510;2023-04-28T00:44:27;9.10;99.90
7694;DHT22;3889;48.162;11.510;2023-04-28T00:46:55;9.00;99.90
7694;DHT22;3889;48.162;11.510;2023-04-28T00:49:25;9.00;99.90
7694;DHT22;3889;48.162;11.510;2023-04-28T00:51:53;9.10;99.90
7694;DHT22;3889;48.162;11.510;2023-04-28T00:54:21;9.10;99.90
7694;DHT22;3889;48.162;11.510;2023-04-28T00:56:49;9.10;99.90
7694;DHT22;3889;48.162;11.510;2023-04-28T00:59:17;9.10;99.90
7694;DHT22;3889;48.162;11.510;2023-04-28T01:01:45;9.10;99.90
7694;DHT22;3889;48.162;11.510;2023-04-28T01:04:13;9.00;99.90
7694;DHT22;3889;48.162;11.510;2023-04-28T01:06:43;9.10;99.90
7694;DHT22;3889;48.162;11.510;2023-04-28T01:09:12;9.00;99.90
7694;DHT22;3889;48.162;11.510;2023-04-28T01:11:39;9.10;99.90
7694;DHT22;3889;48.162;11.510;2023-04-28T01:14:07;9.00;99.90
7694;DHT22;3889;48.162;11.510;2023-04-28T01:16:35;9.00;99.90
7694;DHT22;3889;48.162;11.510;2023-04-28T01:19:06;9.00;99.90
7694;DHT22;3889;48.162;11.510;2023-04-28T01:21:34;8.90;99.90
7694;DHT22;3889;48.162;11.510;2023-04-28T01:24:05;8.90;99.90
7694;DHT22;3889;48.162;11.510;2023-04-28T01:26:33;8.90;99.90
7694;DHT22;3889;48.162;11.510;2023-04-28T01:29:00;8.90;99.90
7694;DHT22;3889;48.162;11.510;2023-04-28T01:31:28;8.90;99.90
7694;DHT22;3889;48.162;11.510;2023-04-28T01:33:57;8.90;99.90
7694;DHT22;3889;48.162;11.510;2023-04-28T01:36:25;8.90;99.90
7694;DHT22;3889;48.162;11.510;2023-04-28T01:38:54;8.90;99.90
7694;DHT22;3889;48.162;11.510;2023-04-28T01:41:23;9.00;99.90
7694;DHT22;3889;48.162;11.510;2023-04-28T01:43:51;8.90;99.90
7694;DHT22;3889;48.162;11.510;2023-04-28T01:46:18;8.90;99.90
7694;DHT22;3889;48.162;11.510;2023-04-28T01:48:46;9.00;99.90
7694;DHT22;3889;48.162;11.510;2023-04-28T01:51:14;9.00;99.90
7694;DHT22;3889;48.162;11.510;2023-04-28T01:53:42;9.00;99.90
7694;DHT22;3889;48.162;11.510;2023-04-28T01:56:10;9.00;99.90
7694;DHT22;3889;48.162;11.510;2023-04-28T01:58:39;9.00;99.90
7694;DHT22;3889;48.162;11.510;2023-04-28T02:01:07;9.00;99.90
7694;DHT22;3889;48.162;11.510;2023-04-28T02:03:35;9.00;99.90
7694;DHT22;3889;48.162;11.510;2023-04-28T02:06:03;9.00;99.90
7694;DHT22;3889;48.162;11.510;2023-04-28T02:08:31;9.00;99.90
7694;DHT22;3889;48.162;11.510;2023-04-28T02:10:59;9.00;99.90
7694;DHT22;3889;48.162;11.510;2023-04-28T02:13:29;9.00;99.90
7694;DHT22;3889;48.162;11.510;2023-04-28T02:16:00;9.00;99.90
7694;DHT22;3889;48.162;11.510;2023-04-28T02:18:28;9.00;99.90
7694;DHT22;3889;48.162;11.510;2023-04-28T02:20:56;9.10;99.90
7694;DHT22;3889;48.162;11.510;2023-04-28T02:23:24;9.10;99.90
7694;DHT22;3889;48.162;11.510;2023-04-28T02:25:59;9.10;99.90
7694;DHT22;3889;48.162;11.510;2023-04-28T02:28:29;9.10;99.90
7694;DHT22;3889;48.162;11.510;2023-04-28T02:31:04;9.20;99.90
7694;DHT22;3889;48.162;11.510;2023-04-28T02:33:32;9.20;99.90
7694;DHT22;3889;48.162;11.510;2023-04-28T02:36:01;9.30;99.90
7694;DHT22;3889;48.162;11.510;2023-04-28T02:38:29;9.30;99.90
7694;DHT22;3889;48.162;11.510;2023-04-28T02:40:57;9.30;99.90
7694;DHT22;3889;48.162;11.510;2023-04-28T02:43:26;9.40;99.90
7694;DHT22;3889;48.162;11.510;2023-04-28T02:45:54;9.20;99.90
7694;DHT22;3889;48.162;11.510;2023-04-28T02:48:24;9.30;99.90
7694;DHT22;3889;48.162;11.510;2023-04-28T02:50:52;9.20;99.90
7694;DHT22;3889;48.162;11.510;2023-04-28T02:53:20;9.20;99.90
7694;DHT22;3889;48.162;11.510;2023-04-28T02:55:49;9.20;99.90
7694;DHT22;3889;48.162;11.510;2023-04-28T02:58:16;9.30;99.90
7694;DHT22;3889;48.162;11.510;2023-04-28T03:00:44;9.30;99.90
7694;DHT22;3889;48.162;11.510;2023-04-28T03:03:12;9.20;99.90
7694;DHT22;3889;48.162;11.510;2023-04-28T03:05:42;9.30;99.90
7694;DHT22;3889;48.162;11.510;2023-04-28T03:08:10;9.30;99.90
7694;DHT22;3889;48.162;11.510;2023-04-28T03:10:37;9.30;99.90
7694;DHT22;3889;48.162;11.510;2023-04-28T03:13:05;9.40;99.90
7694;DHT22;3889;48.162;11.510;2023-04-28T03:15:33;9.40;99.90
7694;DHT22;3889;48.162;11.510;2023-04-28T03:18:01;9.40;99.90
7694;DHT22;3889;48.162;11.510;2023-04-28T03:20:29;9.40;99.90
7694;DHT22;3889;48.162;11.510;2023-04-28T03:22:58;9.20;99.90
7694;DHT22;3889;48.162;11.510;2023-04-28T03:25:27;9.30;99.90
7694;DHT22;3889;48.162;11.510;2023-04-28T03:27:55;9.30;99.90
7694;DHT22;3889;48.162;11.510;2023-04-28T03:30:23;9.40;99.90
7694;DHT22;3889;48.162;11.510;2023-04-28T03:32:50;9.30;99.90
7694;DHT22;3889;48.162;11.510;2023-04-28T03:35:18;9.40;99.90
7694;DHT22;3889;48.162;11.510;2023-04-28T03:37:47;9.40;99.90
7694;DHT22;3889;48.162;11.510;2023-04-28T03:40:16;9.20;99.90
7694;DHT22;3889;48.162;11.510;2023-04-28T03:42:44;9.30;99.90
7694;DHT22;3889;48.162;11.510;2023-04-28T03:45:12;9.30;99.90
7694;DHT22;3889;48.162;11.510;2023-04-28T03:47:40;9.40;99.90
7694;DHT22;3889;48.162;11.510;2023-04-28T03:50:08;9.40;99.90
7694;DHT22;3889;48.162;11.510;2023-04-28T03:52:36;9.30;99.90
7694;DHT22;3889;48.162;11.510;2023-04-28T03:55:04;9.40;99.90
7694;DHT22;3889;48.162;11.510;2023-04-28T03:57:34;9.30;99.90
7694;DHT22;3889;48.162;11.510;2023-04-28T04:00:02;9.30;99.90
7694;DHT22;3889;48.162;11.510;2023-04-28T04:02:30;9.30;99.90
7694;DHT22;3889;48.162;11.510;2023-04-28T04:04:58;9.20;99.90
7694;DHT22;3889;48.162;11.510;2023-04-28T04:07:27;9.20;99.90
7694;DHT22;3889;48.162;11.510;2023-04-28T04:09:54;9.30;99.90
7694;DHT22;3889;48.162;11.510;2023-04-28T04:12:22;9.20;99.90
7694;DHT22;3889;48.162;11.510;2023-04-28T04:14:51;9.30;99.90
7694;DHT22;3889;48.162;11.510;2023-04-28T04:17:19;9.20;99.90
7694;DHT22;3889;48.162;11.510;2023-04-28T04:19:47;9.20;99.90
7694;DHT22;3889;48.162;11.510;2023-04-28T04:22:15;9.30;99.90
7694;DHT22;3889;48.162;11.510;2023-04-28T04:24:43;9.40;99.90
7694;DHT22;3889;48.162;11.510;2023-04-28T04:27:10;9.40;99.90
7694;DHT22;3889;48.162;11.510;2023-04-28T04:29:38;9.40;99.90
7694;DHT22;3889;48.162;11.510;2023-04-28T04:32:08;9.40;99.90
7694;DHT22;3889;48.162;11.510;2023-04-28T04:34:35;9.40;99.90
7694;DHT22;3889;48.162;11.510;2023-04-28T04:37:03;9.40;99.90
7694;DHT22;3889;48.162;11.510;2023-04-28T04:39:31;9.40;99.90
7694;DHT22;3889;48.162;11.510;2023-04-28T04:41:59;9.40;99.90
7694;DHT22;3889;48.162;11.510;2023-04-28T04:44:48;9.40;99.90
7694;DHT22;3889;48.162;11.510;2023-04-28T04:47:17;9.40;99.90
7694;DHT22;3889;48.162;11.510;2023-04-28T04:49:46;9.50;99.90
7694;DHT22;3889;48.162;11.510;2023-04-28T04:52:14;9.60;99.90
7694;DHT22;3889;48.162;11.510;2023-04-28T04:54:41;9.60;99.90
7694;DHT22;3889;48.162;11.510;2023-04-28T04:57:10;9.60;99.90
7694;DHT22;3889;48.162;11.510;2023-04-28T04:59:38;9.70;99.90
7694;DHT22;3889;48.162;11.510;2023-04-28T05:02:06;9.70;99.90
7694;DHT22;3889;48.162;11.510;2023-04-28T05:04:35;9.70;99.90
7694;DHT22;3889;48.162;11.510;2023-04-28T05:07:03;9.70;99.90
7694;DHT22;3889;48.162;11.510;2023-04-28T05:09:31;9.70;99.90
7694;DHT22;3889;48.162;11.510;2023-04-28T05:11:59;9.70;99.90
7694;DHT22;3889;48.162;11.510;2023-04-28T05:14:27;9.70;99.90
7694;DHT22;3889;48.162;11.510;2023-04-28T05:16:55;9.70;99.90
7694;DHT22;3889;48.162;11.510;2023-04-28T05:19:23;9.80;99.90
7694;DHT22;3889;48.162;11.510;2023-04-28T05:21:52;9.70;99.90
7694;DHT22;3889;48.162;11.510;2023-04-28T05:24:20;9.80;99.90
7694;DHT22;3889;48.162;11.510;2023-04-28T05:26:49;9.80;99.90
7694;DHT22;3889;48.162;11.510;2023-04-28T05:29:17;9.80;99.90
7694;DHT22;3889;48.162;11.510;2023-04-28T05:31:45;9.90;99.90
7694;DHT22;3889;48.162;11.510;2023-04-28T05:34:13;9.80;99.90
7694;DHT22;3889;48.162;11.510;2023-04-28T05:36:43;9.80;99.90
7694;DHT22;3889;48.162;11.510;2023-04-28T05:39:12;9.80;99.90
7694;DHT22;3889;48.162;11.510;2023-04-28T05:41:40;9.80;99.90
7694;DHT22;3889;48.162;11.510;2023-04-28T05:44:08;9.90;99.90
7694;DHT22;3889;48.162;11.510;2023-04-28T05:46:36;9.90;99.90
7694;DHT22;3889;48.162;11.510;2023-04-28T05:49:04;9.90;99.90
7694;DHT22;3889;48.162;11.510;2023-04-28T05:51:32;9.90;99.90
7694;DHT22;3889;48.162;11.510;2023-04-28T05:54:00;9.90;99.90
7694;DHT22;3889;48.162;11.510;2023-04-28T05:56:29;9.90;99.90
7694;DHT22;3889;48.162;11.510;2023-04-28T05:58:57;9.90;99.90
7694;DHT22;3889;48.162;11.510;2023-04-28T06:01:29;9.90;99.90
7694;DHT22;3889;48.162;11.510;2023-04-28T06:03:57;9.90;99.90
7694;DHT22;3889;48.162;11.510;2023-04-28T06:06:26;10.00;99.90
7694;DHT22;3889;48.162;11.510;2023-04-28T06:08:54;10.00;99.90
7694;DHT22;3889;48.162;11.510;2023-04-28T06:11:22;10.00;99.90
7694;DHT22;3889;48.162;11.510;2023-04-28T06:13:51;10.00;99.90
7694;DHT22;3889;48.162;11.510;2023-04-28T06:16:19;10.00;99.90
7694;DHT22;3889;48.162;11.510;2023-04-28T06:18:49;10.00;99.90
7694;DHT22;3889;48.162;11.510;2023-04-28T06:21:17;10.00;99.90
7694;DHT22;3889;48.162;11.510;2023-04-28T06:23:47;10.00;99.90
7694;DHT22;3889;48.162;11.510;2023-04-28T06:26:15;10.10;99.90
7694;DHT22;3889;48.162;11.510;2023-04-28T06:28:44;10.20;99.90
7694;DHT22;3889;48.162;11.510;2023-04-28T06:31:13;10.20;99.90
7694;DHT22;3889;48.162;11.510;2023-04-28T06:33:41;10.30;99.90
7694;DHT22;3889;48.162;11.510;2023-04-28T06:36:09;10.40;99.90
7694;DHT22;3889;48.162;11.510;2023-04-28T06:38:39;10.40;99.90
7694;DHT22;3889;48.162;11.510;2023-04-28T06:41:08;10.50;99.90
7694;DHT22;3889;48.162;11.510;2023-04-28T06:43:36;10.60;99.90
7694;DHT22;3889;48.162;11.510;2023-04-28T06:46:04;10.60;99.90
7694;DHT22;3889;48.162;11.510;2023-04-28T06:48:34;10.70;99.90
7694;DHT22;3889;48.162;11.510;2023-04-28T06:51:02;10.90;99.90
7694;DHT22;3889;48.162;11.510;2023-04-28T06:53:30;11.10;99.90
7694;DHT22;3889;48.162;11.510;2023-04-28T06:55:58;11.40;99.90
7694;DHT22;3889;48.162;11.510;2023-04-28T06:58:26;11.60;99.90
7694;DHT22;3889;48.162;11.510;2023-04-28T07:00:54;11.90;99.90
7694;DHT22;3889;48.162;11.510;2023-04-28T07:03:22;12.00;99.90
7694;DHT22;3889;48.162;11.510;2023-04-28T07:05:51;12.10;99.90
7694;DHT22;3889;48.162;11.510;2023-04-28T07:08:19;12.20;99.90
7694;DHT22;3889;48.162;11.510;2023-04-28T07:10:47;12.30;99.90
7694;DHT22;3889;48.162;11.510;2023-04-28T07:13:15;12.40;99.90
7694;DHT22;3889;48.162;11.510;2023-04-28T07:15:42;12.50;99.90
7694;DHT22;3889;48.162;11.510;2023-04-28T07:18:10;12.50;99.90
7694;DHT22;3889;48.162;11.510;2023-04-28T07:20:38;12.50;99.90
7694;DHT22;3889;48.162;11.510;2023-04-28T07:23:07;12.50;99.90
7694;DHT22;3889;48.162;11.510;2023-04-28T07:25:35;12.50;99.90
7694;DHT22;3889;48.162;11.510;2023-04-28T07:28:04;12.50;99.90
7694;DHT22;3889;48.162;11.510;2023-04-28T07:30:32;12.50;99.90
7694;DHT22;3889;48.162;11.510;2023-04-28T07:33:00;12.50;99.90
7694;DHT22;3889;48.162;11.510;2023-04-28T07:35:28;12.50;99.90
7694;DHT22;3889;48.162;11.510;2023-04-28T07:37:56;12.50;99.90
7694;DHT22;3889;48.162;11.510;2023-04-28T07:40:26;12.50;99.90
7694;DHT22;3889;48.162;11.510;2023-04-28T07:42:53;12.50;99.90
7694;DHT22;3889;48.162;11.510;2023-04-28T07:45:22;12.50;99.90
7694;DHT22;3889;48.162;11.510;2023-04-28T07:47:50;12.60;99.90
7694;DHT22;3889;48.162;11.510;2023-04-28T07:50:17;12.60;99.90
7694;DHT22;3889;48.162;11.510;2023-04-28T07:52:45;12.60;99.90
7694;DHT22;3889;48.162;11.510;2023-04-28T07:55:13;12.60;99.90
7694;DHT22;3889;48.162;11.510;2023-04-28T07:57:43;12.50;99.90
7694;DHT22;3889;48.162;11.510;2023-04-28T08:00:11;12.50;99.90
7694;DHT22;3889;48.162;11.510;2023-04-28T08:02:39;12.50;99.90
7694;DHT22;3889;48.162;11.510;2023-04-28T08:05:08;12.50;99.90
7694;DHT22;3889;48.162;11.510;2023-04-28T08:07:37;12.50;99.90
7694;DHT22;3889;48.162;11.510;2023-04-28T08:10:08;12.40;99.90
7694;DHT22;3889;48.162;11.510;2023-04-28T08:12:37;12.40;99.90
7694;DHT22;3889;48.162;11.510;2023-04-28T08:15:08;12.40;99.90
7694;DHT22;3889;48.162;11.510;2023-04-28T08:17:36;12.40;99.90
7694;DHT22;3889;48.162;11.510;2023-04-28T08:20:06;12.40;99.90
7694;DHT22;3889;48.162;11.510;2023-04-28T08:22:34;12.50;99.90
7694;DHT22;3889;48.162;11.510;2023-04-28T08:25:02;12.50;99.90
7694;DHT22;3889;48.162;11.510;2023-04-28T08:27:30;12.40;99.90
7694;DHT22;3889;48.162;11.510;2023-04-28T08:29:59;12.40;99.90
7694;DHT22;3889;48.162;11.510;2023-04-28T08:32:28;12.40;99.90
7694;DHT22;3889;48.162;11.510;2023-04-28T08:34:56;12.30;99.90
7694;DHT22;3889;48.162;11.510;2023-04-28T08:37:25;12.20;99.90
7694;DHT22;3889;48.162;11.510;2023-04-28T08:39:53;12.20;99.90
7694;DHT22;3889;48.162;11.510;2023-04-28T08:42:28;12.10;99.90
7694;DHT22;3889;48.162;11.510;2023-04-28T08:44:57;12.10;99.90
7694;DHT22;3889;48.162;11.510;2023-04-28T08:47:32;12.10;99.90
7694;DHT22;3889;48.162;11.510;2023-04-28T08:50:05;12.10;99.90
7694;DHT22;3889;48.162;11.510;2023-04-28T08:52:34;12.10;99.90
7694;DHT22;3889;48.162;11.510;2023-04-28T08:55:06;12.10;99.90
7694;DHT22;3889;48.162;11.510;2023-04-28T08:57:37;12.10;99.90
7694;DHT22;3889;48.162;11.510;2023-04-28T09:00:08;12.10;99.90
7694;DHT22;3889;48.162;11.510;2023-04-28T09:02:37;12.20;99.90
7694;DHT22;3889;48.162;11.510;2023-04-28T09:05:08;12.20;99.90
7694;DHT22;3889;48.162;11.510;2023-04-28T09:07:37;12.30;99.90
7694;DHT22;3889;48.162;11.510;2023-04-28T09:10:19;12.40;99.90
7694;DHT22;3889;48.162;11.510;2023-04-28T09:12:50;12.40;99.90
7694;DHT22;3889;48.162;11.510;2023-04-28T09:15:26;12.50;99.90
7694;DHT22;3889;48.162;11.510;2023-04-28T09:17:59;12.50;99.90
7694;DHT22;3889;48.162;11.510;2023-04-28T09:20:29;12.50;99.90
7694;DHT22;3889;48.162;11.510;2023-04-28T09:23:12;12.50;99.90
7694;DHT22;3889;48.162;11.510;2023-04-28T09:25:41;12.50;99.90
7694;DHT22;3889;48.162;11.510;2023-04-28T09:28:22;12.50;99.90
7694;DHT22;3889;48.162;11.510;2023-04-28T09:30:50;12.40;99.90
7694;DHT22;3889;48.162;11.510;2023-04-28T09:33:19;12.40;99.90
7694;DHT22;3889;48.162;11.510;2023-04-28T09:35:48;12.30;99.90
7694;DHT22;3889;48.162;11.510;2023-04-28T09:38:16;12.20;99.90
7694;DHT22;3889;48.162;11.510;2023-04-28T09:40:51;12.10;99.90
7694;DHT22;3889;48.162;11.510;2023-04-28T09:43:24;12.10;99.90
7694;DHT22;3889;48.162;11.510;2023-04-28T09:45:52;12.10;99.90
7694;DHT22;3889;48.162;11.510;2023-04-28T09:48:30;12.10;99.90
7694;DHT22;3889;48.162;11.510;2023-04-28T09:50:59;12.10;99.90
7694;DHT22;3889;48.162;11.510;2023-04-28T09:53:27;12.20;99.90
7694;DHT22;3889;48.162;11.510;2023-04-28T09:55:56;12.20;99.90
7694;DHT22;3889;48.162;11.510;2023-04-28T09:58:26;12.20;99.90
7694;DHT22;3889;48.162;11.510;2023-04-28T10:00:55;12.20;99.90
7694;DHT22;3889;48.162;11.510;2023-04-28T10:03:24;12.20;99.90
7694;DHT22;3889;48.162;11.510;2023-04-28T10:05:57;12.20;99.90
7694;DHT22;3889;48.162;11.510;2023-04-28T10:08:26;12.20;99.90
7694;DHT22;3889;48.162;11.510;2023-04-28T10:10:54;12.20;99.90
7694;DHT22;3889;48.162;11.510;2023-04-28T10:13:23;12.20;99.90
7694;DHT22;3889;48.162;11.510;2023-04-28T10:15:52;12.20;99.90
7694;DHT22;3889;48.162;11.510;2023-04-28T10:18:22;12.20;99.90
7694;DHT22;3889;48.162;11.510;2023-04-28T10:20:54;12.20;99.90
7694;DHT22;3889;48.162;11.510;2023-04-28T10:23:49;12.10;99.90
7694;DHT22;3889;48.162;11.510;2023-04-28T10:26:19;12.10;99.90
7694;DHT22;3889;48.162;11.510;2023-04-28T10:28:50;12.10;99.90
7694;DHT22;3889;48.162;11.510;2023-04-28T10:31:19;12.20;99.90
7694;DHT22;3889;48.162;11.510;2023-04-28T10:33:49;12.10;99.90
7694;DHT22;3889;48.162;11.510;2023-04-28T10:36:47;12.20;99.90
7694;DHT22;3889;48.162;11.510;2023-04-28T10:39:18;12.20;99.90
7694;DHT22;3889;48.162;11.510;2023-04-28T10:41:46;12.20;99.90
7694;DHT22;3889;48.162;11.510;2023-04-28T10:44:41;12.20;99.90
7694;DHT22;3889;48.162;11.510;2023-04-28T10:47:10;12.20;99.90
7694;DHT22;3889;48.162;11.510;2023-04-28T10:50:03;12.20;99.90
7694;DHT22;3889;48.162;11.510;2023-04-28T10:52:48;12.20;99.90
7694;DHT22;3889;48.162;11.510;2023-04-28T10:55:29;12.20;99.90
7694;DHT22;3889;48.162;11.510;2023-04-28T10:58:32;12.20;99.90
7694;DHT22;3889;48.162;11.510;2023-04-28T11:01:24;12.20;99.90
7694;DHT22;3889;48.162;11.510;2023-04-28T11:03:53;12.20;99.90
7694;DHT22;3889;48.162;11.510;2023-04-28T11:06:30;12.20;99.90
7694;DHT22;3889;48.162;11.510;2023-04-28T11:09:00;12.30;99.90
7694;DHT22;3889;48.162;11.510;2023-04-28T11:11:31;12.30;99.90
7694;DHT22;3889;48.162;11.510;2023-04-28T11:14:32;12.30;99.90
7694;DHT22;3889;48.162;11.510;2023-04-28T11:17:01;12.30;99.90
7694;DHT22;3889;48.162;11.510;2023-04-28T11:19:31;12.20;99.90
7694;DHT22;3889;48.162;11.510;2023-04-28T11:22:01;12.20;99.90
7694;DHT22;3889;48.162;11.510;2023-04-28T11:24:30;12.00;99.90
7694;DHT22;3889;48.162;11.510;2023-04-28T11:26:59;12.10;99.90
7694;DHT22;3889;48.162;11.510;2023-04-28T11:29:31;12.00;99.90
7694;DHT22;3889;48.162;11.510;2023-04-28T11:32:00;11.90;99.90
7694;DHT22;3889;48.162;11.510;2023-04-28T11:34:28;11.90;99.90
7694;DHT22;3889;48.162;11.510;2023-04-28T11:36:56;12.00;99.90
7694;DHT22;3889;48.162;11.510;2023-04-28T11:39:27;12.00;99.90
7694;DHT22;3889;48.162;11.510;2023-04-28T11:41:56;12.20;99.90
7694;DHT22;3889;48.162;11.510;2023-04-28T11:44:26;12.20;99.90
7694;DHT22;3889;48.162;11.510;2023-04-28T11:46:56;12.30;99.90
7694;DHT22;3889;48.162;11.510;2023-04-28T11:49:27;12.40;99.90
7694;DHT22;3889;48.162;11.510;2023-04-28T11:51:56;12.40;99.90
7694;DHT22;3889;48.162;11.510;2023-04-28T11:54:27;12.50;99.90
7694;DHT22;3889;48.162;11.510;2023-04-28T11:56:56;12.50;99.90
7694;DHT22;3889;48.162;11.510;2023-04-28T11:59:26;12.40;99.90
7694;DHT22;3889;48.162;11.510;2023-04-28T12:01:56;12.40;99.90
7694;DHT22;3889;48.162;11.510;2023-04-28T12:04:26;12.40;99.90
7694;DHT22;3889;48.162;11.510;2023-04-28T12:07:02;12.50;99.90
7694;DHT22;3889;48.162;11.510;2023-04-28T12:09:31;12.50;99.90
7694;DHT22;3889;48.162;11.510;2023-04-28T12:12:00;12.50;99.90
7694;DHT22;3889;48.162;11.510;2023-04-28T12:14:30;12.50;99.90
7694;DHT22;3889;48.162;11.510;2023-04-28T12:17:01;12.50;99.90
7694;DHT22;3889;48.162;11.510;2023-04-28T12:19:41;12.50;99.90
7694;DHT22;3889;48.162;11.510;2023-04-28T12:22:09;12.60;99.90
7694;DHT22;3889;48.162;11.510;2023-04-28T12:24:38;12.70;99.90
7694;DHT22;3889;48.162;11.510;2023-04-28T12:27:16;12.80;99.90
7694;DHT22;3889;48.162;11.510;2023-04-28T12:29:48;13.00;99.90
7694;DHT22;3889;48.162;11.510;2023-04-28T12:32:17;13.10;99.90
7694;DHT22;3889;48.162;11.510;2023-04-28T12:34:45;13.00;99.90
7694;DHT22;3889;48.162;11.510;2023-04-28T12:37:13;13.10;99.90
7694;DHT22;3889;48.162;11.510;2023-04-28T12:39:42;13.00;99.90
7694;DHT22;3889;48.162;11.510;2023-04-28T12:42:10;13.10;99.90
7694;DHT22;3889;48.162;11.510;2023-04-28T12:44:38;13.20;99.90
7694;DHT22;3889;48.162;11.510;2023-04-28T12:47:08;13.20;99.90
7694;DHT22;3889;48.162;11.510;2023-04-28T12:49:37;13.20;99.90
7694;DHT22;3889;48.162;11.510;2023-04-28T12:52:05;13.10;99.90
7694;DHT22;3889;48.162;11.510;2023-04-28T12:54:33;13.20;99.90
7694;DHT22;3889;48.162;11.510;2023-04-28T12:57:01;13.20;99.90
7694;DHT22;3889;48.162;11.510;2023-04-28T12:59:29;13.30;99.90
7694;DHT22;3889;48.162;11.510;2023-04-28T13:01:58;13.30;99.90
7694;DHT22;3889;48.162;11.510;2023-04-28T13:04:27;13.40;99.90
7694;DHT22;3889;48.162;11.510;2023-04-28T13:06:56;13.30;99.90
7694;DHT22;3889;48.162;11.510;2023-04-28T13:09:24;13.40;99.90
7694;DHT22;3889;48.162;11.510;2023-04-28T13:11:52;13.40;99.90
7694;DHT22;3889;48.162;11.510;2023-04-28T13:14:21;13.60;99.90
7694;DHT22;3889;48.162;11.510;2023-04-28T13:16:49;13.50;99.90
7694;DHT22;3889;48.162;11.510;2023-04-28T13:19:18;13.70;99.90
7694;DHT22;3889;48.162;11.510;2023-04-28T13:21:48;13.80;99.90
7694;DHT22;3889;48.162;11.510;2023-04-28T13:24:16;13.90;99.90
7694;DHT22;3889;48.162;11.510;2023-04-28T13:26:44;13.80;99.90
7694;DHT22;3889;48.162;11.510;2023-04-28T13:29:11;13.80;99.90
7694;DHT22;3889;48.162;11.510;2023-04-28T13:31:40;13.80;99.90
7694;DHT22;3889;48.162;11.510;2023-04-28T13:34:07;13.80;99.90
7694;DHT22;3889;48.162;11.510;2023-04-28T13:36:41;13.80;99.90
7694;DHT22;3889;48.162;11.510;2023-04-28T13:39:10;13.90;99.90
7694;DHT22;3889;48.162;11.510;2023-04-28T13:41:40;14.00;99.90
7694;DHT22;3889;48.162;11.510;2023-04-28T13:44:08;14.10;99.90
7694;DHT22;3889;48.162;11.510;2023-04-28T13:46:36;14.10;99.90
7694;DHT22;3889;48.162;11.510;2023-04-28T13:49:04;14.20;99.90
7694;DHT22;3889;48.162;11.510;2023-04-28T13:51:32;14.30;99.90
7694;DHT22;3889;48.162;11.510;2023-04-28T13:53:59;14.20;99.90
7694;DHT22;3889;48.162;11.510;2023-04-28T13:56:31;14.20;99.90
7694;DHT22;3889;48.162;11.510;2023-04-28T13:58:59;14.20;99.90
7694;DHT22;3889;48.162;11.510;2023-04-28T14:01:27;14.30;99.90
7694;DHT22;3889;48.162;11.510;2023-04-28T14:03:55;14.50;99.90
7694;DHT22;3889;48.162;11.510;2023-04-28T14:06:23;14.40;99.90
7694;DHT22;3889;48.162;11.510;2023-04-28T14:08:51;14.50;99.90
7694;DHT22;3889;48.162;11.510;2023-04-28T14:11:19;14.70;99.90
7694;DHT22;3889;48.162;11.510;2023-04-28T14:13:49;14.70;99.90
7694;DHT22;3889;48.162;11.510;2023-04-28T14:16:17;14.80;99.90
7694;DHT22;3889;48.162;11.510;2023-04-28T14:18:45;14.80;99.90
7694;DHT22;3889;48.162;11.510;2023-04-28T14:21:13;14.90;99.90
7694;DHT22;3889;48.162;11.510;2023-04-28T14:23:40;15.00;99.90
7694;DHT22;3889;48.162;11.510;2023-04-28T14:26:08;14.90;99.90
7694;DHT22;3889;48.162;11.510;2023-04-28T14:28:36;15.00;99.90
7694;DHT22;3889;48.162;11.510;2023-04-28T14:31:05;15.00;99.90
7694;DHT22;3889;48.162;11.510;2023-04-28T14:33:34;14.80;99.90
7694;DHT22;3889;48.162;11.510;2023-04-28T14:36:03;14.70;99.90
7694;DHT22;3889;48.162;11.510;2023-04-28T14:38:31;14.70;99.90
7694;DHT22;3889;48.162;11.510;2023-04-28T14:40:59;14.70;99.90
7694;DHT22;3889;48.162;11.510;2023-04-28T14:43:27;14.60;99.90
7694;DHT22;3889;48.162;11.510;2023-04-28T14:45:55;14.50;99.90
7694;DHT22;3889;48.162;11.510;2023-04-28T14:48:24;14.60;99.90
7694;DHT22;3889;48.162;11.510;2023-04-28T14:50:53;14.50;99.90
7694;DHT22;3889;48.162;11.510;2023-04-28T14:53:21;14.50;99.90
7694;DHT22;3889;48.162;11.510;2023-04-28T14:55:50;14.50;99.90
7694;DHT22;3889;48.162;11.510;2023-04-28T14:58:18;14.50;99.90
7694;DHT22;3889;48.162;11.510;2023-04-28T15:00:46;14.60;99.90
7694;DHT22;3889;48.162;11.510;2023-04-28T15:03:14;14.50;99.90
7694;DHT22;3889;48.162;11.510;2023-04-28T15:05:43;14.50;99.90
7694;DHT22;3889;48.162;11.510;2023-04-28T15:08:11;14.50;99.90
7694;DHT22;3889;48.162;11.510;2023-04-28T15:10:39;14.50;99.90
7694;DHT22;3889;48.162;11.510;2023-04-28T15:13:07;14.50;99.90
7694;DHT22;3889;48.162;11.510;2023-04-28T15:15:35;14.40;99.90
7694;DHT22;3889;48.162;11.510;2023-04-28T15:18:03;14.30;99.90
7694;DHT22;3889;48.162;11.510;2023-04-28T15:20:32;14.20;99.90
7694;DHT22;3889;48.162;11.510;2023-04-28T15:23:04;14.20;99.90
7694;DHT22;3889;48.162;11.510;2023-04-28T15:25:32;14.10;99.90
7694;DHT22;3889;48.162;11.510;2023-04-28T15:27:59;14.20;99.90
7694;DHT22;3889;48.162;11.510;2023-04-28T15:30:29;14.10;99.90
7694;DHT22;3889;48.162;11.510;2023-04-28T15:32:57;14.00;99.90
7694;DHT22;3889;48.162;11.510;2023-04-28T15:35:25;13.90;99.90
7694;DHT22;3889;48.162;11.510;2023-04-28T15:37:54;13.90;99.90
7694;DHT22;3889;48.162;11.510;2023-04-28T15:40:23;13.80;99.90
7694;DHT22;3889;48.162;11.510;2023-04-28T15:42:51;13.70;99.90
7694;DHT22;3889;48.162;11.510;2023-04-28T15:45:20;13.70;99.90
7694;DHT22;3889;48.162;11.510;2023-04-28T15:47:49;13.60;99.90
7694;DHT22;3889;48.162;11.510;2023-04-28T15:50:17;13.60;99.90
7694;DHT22;3889;48.162;11.510;2023-04-28T15:52:46;13.50;99.90
7694;DHT22;3889;48.162;11.510;2023-04-28T15:55:17;13.50;99.90
7694;DHT22;3889;48.162;11.510;2023-04-28T15:57:47;13.50;99.90
7694;DHT22;3889;48.162;11.510;2023-04-28T16:00:15;13.50;99.90
7694;DHT22;3889;48.162;11.510;2023-04-28T16:02:43;13.50;99.90
7694;DHT22;3889;48.162;11.510;2023-04-28T16:05:15;13.50;99.90